CheckWX is a tool to help pilots better visualize weather data.  It is not intended as a substitute for an official pre-flight weather briefing.

00:10:02 UTC

KBBG METAR
Branson Airport
Branson, Missouri, USA
Current

20 mins ago

KBBG 182350Z 15010KT 10SM SKC 16/07 A2983
Observed
Oct-18 @ 23:50 UTC
Wind
  • 150° at 10 KTS
Visibility
10 SM
Flight Rules
VFR
Cloud Levels
  • Clear skies
Temperature
16°C / 61°F
Dewpoint
C / 45°F
Humidity
55%
Altimeter
29.83" Hg
Pressure
1010.12 hPa
Previous

1 hour ago

KBBG 182251Z 14009KT 10SM SKC 19/06 A2983
Observed
Oct-18 @ 22:51 UTC
Wind
  • 140° at 9 KTS
Visibility
10 SM
Flight Rules
VFR
Cloud Levels
  • Clear skies
Temperature
19°C / 66°F
Dewpoint
C / 43°F
Humidity
43%
Altimeter
29.83" Hg
Pressure
1010.12 hPa
Previous

2 hours ago

KBBG 182152Z 14013G17KT 10SM SKC 20/04 A2984
Observed
Oct-18 @ 21:52 UTC
Wind
  • 140° at 13 KTS
  • Gusting to 17 KTS
Visibility
10 SM
Flight Rules
VFR
Cloud Levels
  • Clear skies
Temperature
20°C / 68°F
Dewpoint
C / 39°F
Humidity
35%
Altimeter
29.84" Hg
Pressure
1010.52 hPa